sensor_id;sensor_type;location;lat;lon;timestamp;pressure;altitude;pressure_sealevel;temperature;humidity
9460;BME280;4768;42.664;23.240;2023-04-06T00:02:18;-9384.38;;;-0.90;100.00
9460;BME280;4768;42.664;23.240;2023-04-06T00:04:44;-9384.38;;;-0.90;100.00
9460;BME280;4768;42.664;23.240;2023-04-06T00:07:11;-9385.06;;;-0.87;100.00
9460;BME280;4768;42.664;23.240;2023-04-06T00:09:38;-9385.34;;;-0.86;100.00
9460;BME280;4768;42.664;23.240;2023-04-06T00:12:05;-9386.47;;;-0.82;100.00
9460;BME280;4768;42.664;23.240;2023-04-06T00:14:32;-9386.75;;;-0.81;100.00
9460;BME280;4768;42.664;23.240;2023-04-06T00:17:00;-9386.06;;;-0.84;100.00
9460;BME280;4768;42.664;23.240;2023-04-06T00:19:27;-9385.91;;;-0.84;100.00
9460;BME280;4768;42.664;23.240;2023-04-06T00:21:54;-9383.94;;;-0.91;100.00
9460;BME280;4768;42.664;23.240;2023-04-06T00:24:21;-9385.63;;;-0.85;100.00
9460;BME280;4768;42.664;23.240;2023-04-06T00:26:47;-9385.63;;;-0.85;100.00
9460;BME280;4768;42.664;23.240;2023-04-06T00:29:14;-9385.91;;;-0.84;100.00
9460;BME280;4768;42.664;23.240;2023-04-06T00:31:41;-9386.75;;;-0.81;100.00
9460;BME280;4768;42.664;23.240;2023-04-06T00:34:09;-9387.03;;;-0.80;100.00
9460;BME280;4768;42.664;23.240;2023-04-06T00:36:36;-9386.06;;;-0.84;100.00
9460;BME280;4768;42.664;23.240;2023-04-06T00:39:03;-9386.47;;;-0.82;100.00
9460;BME280;4768;42.664;23.240;2023-04-06T00:41:30;-9386.47;;;-0.82;100.00
9460;BME280;4768;42.664;23.240;2023-04-06T00:43:57;-9385.91;;;-0.84;100.00
9460;BME280;4768;42.664;23.240;2023-04-06T00:46:24;-9385.22;;;-0.87;100.00
9460;BME280;4768;42.664;23.240;2023-04-06T00:48:51;-9386.19;;;-0.83;100.00
9460;BME280;4768;42.664;23.240;2023-04-06T00:51:19;-9386.31;;;-0.83;100.00
9460;BME280;4768;42.664;23.240;2023-04-06T00:53:46;-9388.03;;;-0.77;100.00
9460;BME280;4768;42.664;23.240;2023-04-06T00:56:12;-9388.03;;;-0.77;100.00
9460;BME280;4768;42.664;23.240;2023-04-06T00:58:39;-9388.03;;;-0.77;100.00
9460;BME280;4768;42.664;23.240;2023-04-06T01:01:06;-9387.75;;;-0.78;100.00
9460;BME280;4768;42.664;23.240;2023-04-06T01:03:33;-9387.31;;;-0.79;100.00
9460;BME280;4768;42.664;23.240;2023-04-06T01:06:00;-9389.16;;;-0.73;100.00
9460;BME280;4768;42.664;23.240;2023-04-06T01:08:28;-9388.31;;;-0.76;100.00
9460;BME280;4768;42.664;23.240;2023-04-06T01:10:55;-9389.16;;;-0.73;100.00
9460;BME280;4768;42.664;23.240;2023-04-06T01:13:22;-9389.16;;;-0.73;100.00
9460;BME280;4768;42.664;23.240;2023-04-06T01:15:49;-9389.84;;;-0.70;100.00
9460;BME280;4768;42.664;23.240;2023-04-06T01:18:15;-9390.28;;;-0.69;100.00
9460;BME280;4768;42.664;23.240;2023-04-06T01:20:42;-9391.25;;;-0.65;100.00
9460;BME280;4768;42.664;23.240;2023-04-06T01:23:10;-9390.97;;;-0.66;100.00
9460;BME280;4768;42.664;23.240;2023-04-06T01:25:37;-9390.56;;;-0.68;100.00
9460;BME280;4768;42.664;23.240;2023-04-06T01:28:04;-9390.56;;;-0.68;100.00
9460;BME280;4768;42.664;23.240;2023-04-06T01:30:30;-9390.56;;;-0.68;100.00
9460;BME280;4768;42.664;23.240;2023-04-06T01:32:57;-9391.25;;;-0.65;100.00
9460;BME280;4768;42.664;23.240;2023-04-06T01:35:26;-9390.00;;;-0.70;100.00
9460;BME280;4768;42.664;23.240;2023-04-06T01:37:53;-9391.13;;;-0.66;100.00
9460;BME280;4768;42.664;23.240;2023-04-06T01:40:21;-9391.69;;;-0.64;100.00
9460;BME280;4768;42.664;23.240;2023-04-06T01:42:48;-9391.81;;;-0.63;100.00
9460;BME280;4768;42.664;23.240;2023-04-06T01:45:14;-9392.38;;;-0.61;100.00
9460;BME280;4768;42.664;23.240;2023-04-06T01:47:41;-9391.69;;;-0.64;100.00
9460;BME280;4768;42.664;23.240;2023-04-06T01:50:09;-9391.53;;;-0.64;100.00
9460;BME280;4768;42.664;23.240;2023-04-06T01:52:35;-9390.84;;;-0.67;100.00
9460;BME280;4768;42.664;23.240;2023-04-06T01:55:02;-9391.25;;;-0.65;100.00
9460;BME280;4768;42.664;23.240;2023-04-06T01:57:31;-9391.41;;;-0.65;100.00
9460;BME280;4768;42.664;23.240;2023-04-06T01:59:58;-9391.97;;;-0.63;100.00
9460;BME280;4768;42.664;23.240;2023-04-06T02:02:25;-9391.69;;;-0.64;100.00
9460;BME280;4768;42.664;23.240;2023-04-06T02:04:52;-9390.41;;;-0.68;100.00
9460;BME280;4768;42.664;23.240;2023-04-06T02:07:19;-9392.53;;;-0.61;100.00
9460;BME280;4768;42.664;23.240;2023-04-06T02:09:45;-9392.81;;;-0.60;100.00
9460;BME280;4768;42.664;23.240;2023-04-06T02:12:12;-9391.97;;;-0.63;100.00
9460;BME280;4768;42.664;23.240;2023-04-06T02:14:40;-9392.09;;;-0.62;100.00
9460;BME280;4768;42.664;23.240;2023-04-06T02:17:07;-9392.09;;;-0.62;100.00
9460;BME280;4768;42.664;23.240;2023-04-06T02:19:34;-9392.38;;;-0.61;100.00
9460;BME280;4768;42.664;23.240;2023-04-06T02:22:01;-9392.66;;;-0.60;100.00
9460;BME280;4768;42.664;23.240;2023-04-06T02:24:27;-9391.53;;;-0.64;100.00
9460;BME280;4768;42.664;23.240;2023-04-06T02:26:54;-9392.94;;;-0.59;100.00
9460;BME280;4768;42.664;23.240;2023-04-06T02:29:21;-9392.81;;;-0.60;100.00
9460;BME280;4768;42.664;23.240;2023-04-06T02:31:49;-9392.66;;;-0.60;100.00
9460;BME280;4768;42.664;23.240;2023-04-06T02:34:16;-9388.44;;;-0.75;100.00
9460;BME280;4768;42.664;23.240;2023-04-06T02:36:44;-9392.38;;;-0.61;100.00
9460;BME280;4768;42.664;23.240;2023-04-06T02:39:11;-9393.09;;;-0.59;100.00
9460;BME280;4768;42.664;23.240;2023-04-06T02:41:38;-9393.78;;;-0.56;100.00
9460;BME280;4768;42.664;23.240;2023-04-06T02:44:06;-9393.78;;;-0.56;100.00
9460;BME280;4768;42.664;23.240;2023-04-06T02:46:33;-9394.63;;;-0.53;100.00
9460;BME280;4768;42.664;23.240;2023-04-06T02:49:01;-9394.22;;;-0.55;100.00
9460;BME280;4768;42.664;23.240;2023-04-06T02:51:28;-9391.97;;;-0.63;100.00
9460;BME280;4768;42.664;23.240;2023-04-06T02:53:55;-9389.28;;;-0.72;100.00
9460;BME280;4768;42.664;23.240;2023-04-06T02:56:22;-9393.38;;;-0.58;100.00
9460;BME280;4768;42.664;23.240;2023-04-06T02:58:48;-9393.94;;;-0.56;100.00
9460;BME280;4768;42.664;23.240;2023-04-06T03:01:15;-9394.06;;;-0.55;100.00
9460;BME280;4768;42.664;23.240;2023-04-06T03:03:42;-9389.44;;;-0.72;100.00
9460;BME280;4768;42.664;23.240;2023-04-06T03:06:11;-9393.38;;;-0.58;100.00
9460;BME280;4768;42.664;23.240;2023-04-06T03:08:37;-9393.78;;;-0.56;100.00
9460;BME280;4768;42.664;23.240;2023-04-06T03:11:04;-9392.25;;;-0.62;100.00
9460;BME280;4768;42.664;23.240;2023-04-06T03:13:31;-9392.53;;;-0.61;100.00
9460;BME280;4768;42.664;23.240;2023-04-06T03:15:58;-9392.53;;;-0.61;100.00
9460;BME280;4768;42.664;23.240;2023-04-06T03:18:25;-9392.53;;;-0.61;100.00
9460;BME280;4768;42.664;23.240;2023-04-06T03:20:52;-9392.94;;;-0.59;100.00
9460;BME280;4768;42.664;23.240;2023-04-06T03:23:22;-9393.50;;;-0.57;100.00
9460;BME280;4768;42.664;23.240;2023-04-06T03:25:48;-9394.06;;;-0.55;100.00
9460;BME280;4768;42.664;23.240;2023-04-06T03:28:15;-9394.78;;;-0.53;100.00
9460;BME280;4768;42.664;23.240;2023-04-06T03:30:42;-9394.50;;;-0.54;100.00
9460;BME280;4768;42.664;23.240;2023-04-06T03:33:09;-9393.66;;;-0.57;100.00
9460;BME280;4768;42.664;23.240;2023-04-06T03:35:35;-9395.06;;;-0.52;100.00
9460;BME280;4768;42.664;23.240;2023-04-06T03:38:02;-9395.34;;;-0.51;100.00
9460;BME280;4768;42.664;23.240;2023-04-06T03:40:31;-9393.94;;;-0.56;100.00
9460;BME280;4768;42.664;23.240;2023-04-06T03:42:57;-9394.06;;;-0.55;100.00
9460;BME280;4768;42.664;23.240;2023-04-06T03:45:24;-9392.94;;;-0.59;100.00
9460;BME280;4768;42.664;23.240;2023-04-06T03:47:51;-9393.09;;;-0.59;100.00
9460;BME280;4768;42.664;23.240;2023-04-06T03:50:18;-9392.81;;;-0.60;100.00
9460;BME280;4768;42.664;23.240;2023-04-06T03:52:44;-9393.50;;;-0.57;100.00
9460;BME280;4768;42.664;23.240;2023-04-06T03:55:11;-9389.16;;;-0.73;100.00
9460;BME280;4768;42.664;23.240;2023-04-06T03:57:39;-9392.94;;;-0.59;100.00
9460;BME280;4768;42.664;23.240;2023-04-06T04:00:07;-9394.34;;;-0.54;100.00
9460;BME280;4768;42.664;23.240;2023-04-06T04:02:34;-9393.66;;;-0.57;100.00
9460;BME280;4768;42.664;23.240;2023-04-06T04:05:01;-9394.63;;;-0.53;100.00
9460;BME280;4768;42.664;23.240;2023-04-06T04:07:28;-9394.50;;;-0.54;100.00
9460;BME280;4768;42.664;23.240;2023-04-06T04:09:55;-9395.63;;;-0.50;100.00
9460;BME280;4768;42.664;23.240;2023-04-06T04:12:22;-9395.91;;;-0.49;100.00
9460;BME280;4768;42.664;23.240;2023-04-06T04:14:50;-9393.94;;;-0.56;100.00
9460;BME280;4768;42.664;23.240;2023-04-06T04:17:17;-9396.31;;;-0.48;100.00
9460;BME280;4768;42.664;23.240;2023-04-06T04:19:44;-9396.19;;;-0.48;100.00
9460;BME280;4768;42.664;23.240;2023-04-06T04:22:10;-9396.31;;;-0.48;100.00
9460;BME280;4768;42.664;23.240;2023-04-06T04:24:37;-9396.88;;;-0.46;100.00
9460;BME280;4768;42.664;23.240;2023-04-06T04:27:04;-9397.16;;;-0.45;100.00
9460;BME280;4768;42.664;23.240;2023-04-06T04:29:31;-9397.44;;;-0.44;100.00
9460;BME280;4768;42.664;23.240;2023-04-06T04:31:59;-9397.16;;;-0.45;100.00
9460;BME280;4768;42.664;23.240;2023-04-06T04:34:26;-9397.88;;;-0.42;100.00
9460;BME280;4768;42.664;23.240;2023-04-06T04:36:55;-9399.28;;;-0.37;100.00
9460;BME280;4768;42.664;23.240;2023-04-06T04:39:22;-9399.13;;;-0.38;100.00
9460;BME280;4768;42.664;23.240;2023-04-06T04:41:49;-9399.97;;;-0.35;100.00
9460;BME280;4768;42.664;23.240;2023-04-06T04:44:15;-9400.53;;;-0.33;100.00
9460;BME280;4768;42.664;23.240;2023-04-06T04:46:42;-9399.84;;;-0.35;100.00
9460;BME280;4768;42.664;23.240;2023-04-06T04:49:10;-9400.84;;;-0.32;100.00
9460;BME280;4768;42.664;23.240;2023-04-06T04:51:37;-9401.13;;;-0.31;100.00
9460;BME280;4768;42.664;23.240;2023-04-06T04:54:04;-9402.09;;;-0.27;100.00
9460;BME280;4768;42.664;23.240;2023-04-06T04:56:30;-9402.53;;;-0.26;100.00
9460;BME280;4768;42.664;23.240;2023-04-06T04:58:57;-9404.91;;;-0.17;100.00
9460;BME280;4768;42.664;23.240;2023-04-06T05:01:24;-9406.75;;;-0.11;100.00
9460;BME280;4768;42.664;23.240;2023-04-06T05:03:51;-9406.88;;;-0.10;100.00
9460;BME280;4768;42.664;23.240;2023-04-06T05:06:19;-9407.16;;;-0.09;100.00
9460;BME280;4768;42.664;23.240;2023-04-06T05:08:46;-9409.41;;;-0.02;100.00
9460;BME280;4768;42.664;23.240;2023-04-06T05:11:12;-9410.13;;;0.01;100.00
9460;BME280;4768;42.664;23.240;2023-04-06T05:13:39;-9409.84;;;0.00;100.00
9460;BME280;4768;42.664;23.240;2023-04-06T05:16:06;-9409.41;;;-0.02;100.00
9460;BME280;4768;42.664;23.240;2023-04-06T05:18:33;-9410.97;;;0.04;100.00
9460;BME280;4768;42.664;23.240;2023-04-06T05:21:00;-9411.13;;;0.04;100.00
9460;BME280;4768;42.664;23.240;2023-04-06T05:23:28;-9413.09;;;0.11;100.00
9460;BME280;4768;42.664;23.240;2023-04-06T05:25:55;-9412.81;;;0.10;100.00
9460;BME280;4768;42.664;23.240;2023-04-06T05:28:22;-9414.22;;;0.15;100.00
9460;BME280;4768;42.664;23.240;2023-04-06T05:30:49;-9413.50;;;0.13;100.00
9460;BME280;4768;42.664;23.240;2023-04-06T05:33:16;-9417.88;;;0.28;100.00
9460;BME280;4768;42.664;23.240;2023-04-06T05:35:43;-9413.50;;;0.13;100.00
9460;BME280;4768;42.664;23.240;2023-04-06T05:38:10;-9415.75;;;0.21;100.00
9460;BME280;4768;42.664;23.240;2023-04-06T05:40:38;-9416.88;;;0.25;100.00
9460;BME280;4768;42.664;23.240;2023-04-06T05:43:06;-9415.63;;;0.20;100.00
9460;BME280;4768;42.664;23.240;2023-04-06T05:45:33;-9417.59;;;0.27;100.00
9460;BME280;4768;42.664;23.240;2023-04-06T05:48:00;-9420.53;;;0.38;100.00
9460;BME280;4768;42.664;23.240;2023-04-06T05:50:27;-9421.81;;;0.42;100.00
9460;BME280;4768;42.664;23.240;2023-04-06T05:52:54;-9424.34;;;0.51;100.00
9460;BME280;4768;42.664;23.240;2023-04-06T05:55:21;-9424.78;;;0.52;100.00
9460;BME280;4768;42.664;23.240;2023-04-06T05:57:49;-9423.94;;;0.49;100.00
9460;BME280;4768;42.664;23.240;2023-04-06T06:00:16;-9425.06;;;0.53;100.00
9460;BME280;4768;42.664;23.240;2023-04-06T06:02:43;-9427.72;;;0.63;100.00
9460;BME280;4768;42.664;23.240;2023-04-06T06:05:10;-9426.47;;;0.58;100.00
9460;BME280;4768;42.664;23.240;2023-04-06T06:07:37;-9426.03;;;0.57;100.00
9460;BME280;4768;42.664;23.240;2023-04-06T06:10:04;-9426.75;;;0.59;100.00
9460;BME280;4768;42.664;23.240;2023-04-06T06:12:31;-9427.59;;;0.62;100.00
9460;BME280;4768;42.664;23.240;2023-04-06T06:14:59;-9430.00;;;0.71;100.00
9460;BME280;4768;42.664;23.240;2023-04-06T06:17:26;-9432.25;;;0.79;100.00
9460;BME280;4768;42.664;23.240;2023-04-06T06:19:52;-9430.28;;;0.72;100.00
9460;BME280;4768;42.664;23.240;2023-04-06T06:22:19;-9431.13;;;0.75;100.00
9460;BME280;4768;42.664;23.240;2023-04-06T06:24:46;-9431.41;;;0.76;100.00
9460;BME280;4768;42.664;23.240;2023-04-06T06:27:13;-9436.47;;;0.94;100.00
9460;BME280;4768;42.664;23.240;2023-04-06T06:29:39;-9434.22;;;0.86;100.00
9460;BME280;4768;42.664;23.240;2023-04-06T06:32:08;-9430.00;;;0.71;100.00
9460;BME280;4768;42.664;23.240;2023-04-06T06:34:35;-9443.38;;;1.18;100.00
9460;BME280;4768;42.664;23.240;2023-04-06T06:37:02;-9440.13;;;1.06;100.00
9460;BME280;4768;42.664;23.240;2023-04-06T06:39:29;-9444.09;;;1.20;100.00
9460;BME280;4768;42.664;23.240;2023-04-06T06:41:56;-9449.44;;;1.39;100.00
9460;BME280;4768;42.664;23.240;2023-04-06T06:44:22;-9443.09;;;1.17;100.00
9460;BME280;4768;42.664;23.240;2023-04-06T06:46:50;-9442.81;;;1.16;100.00
9460;BME280;4768;42.664;23.240;2023-04-06T06:49:19;-9447.59;;;1.33;100.00
9460;BME280;4768;42.664;23.240;2023-04-06T06:51:46;-9450.00;;;1.41;100.00
9460;BME280;4768;42.664;23.240;2023-04-06T06:54:12;-9455.22;;;1.59;100.00
9460;BME280;4768;42.664;23.240;2023-04-06T06:56:39;-9457.63;;;1.68;100.00
9460;BME280;4768;42.664;23.240;2023-04-06T06:59:06;-9454.50;;;1.57;100.00
9460;BME280;4768;42.664;23.240;2023-04-06T07:01:33;-9456.34;;;1.63;100.00
9460;BME280;4768;42.664;23.240;2023-04-06T07:04:00;-9462.00;;;1.83;100.00
9460;BME280;4768;42.664;23.240;2023-04-06T07:06:28;-9467.50;;;2.02;100.00
9460;BME280;4768;42.664;23.240;2023-04-06T07:08:54;-9469.59;;;2.10;100.00
9460;BME280;4768;42.664;23.240;2023-04-06T07:11:21;-9464.94;;;1.93;100.00
9460;BME280;4768;42.664;23.240;2023-04-06T07:13:48;-9471.84;;;2.18;100.00
9460;BME280;4768;42.664;23.240;2023-04-06T07:16:15;-9461.13;;;1.80;100.00
9460;BME280;4768;42.664;23.240;2023-04-06T07:18:42;-9458.03;;;1.69;100.00
9460;BME280;4768;42.664;23.240;2023-04-06T07:21:08;-9456.06;;;1.62;100.00
9460;BME280;4768;42.664;23.240;2023-04-06T07:23:37;-9454.22;;;1.56;100.00
9460;BME280;4768;42.664;23.240;2023-04-06T07:26:03;-9460.84;;;1.79;100.00
9460;BME280;4768;42.664;23.240;2023-04-06T07:28:30;-9465.78;;;1.96;100.00
9460;BME280;4768;42.664;23.240;2023-04-06T07:30:57;-9457.47;;;1.67;100.00
9460;BME280;4768;42.664;23.240;2023-04-06T07:33:24;-9464.38;;;1.92;100.00
9460;BME280;4768;42.664;23.240;2023-04-06T07:35:55;-9471.28;;;2.16;100.00
9460;BME280;4768;42.664;23.240;2023-04-06T07:38:25;-9471.44;;;2.16;100.00
9460;BME280;4768;42.664;23.240;2023-04-06T07:40:54;-9471.28;;;2.16;100.00
9460;BME280;4768;42.664;23.240;2023-04-06T07:43:21;-9472.16;;;2.19;100.00
9460;BME280;4768;42.664;23.240;2023-04-06T07:45:47;-9477.22;;;2.37;100.00
9460;BME280;4768;42.664;23.240;2023-04-06T07:48:14;-9466.94;;;2.00;100.00
9460;BME280;4768;42.664;23.240;2023-04-06T07:50:41;-9471.16;;;2.15;100.00
9460;BME280;4768;42.664;23.240;2023-04-06T07:53:08;-9472.00;;;2.18;100.00
9460;BME280;4768;42.664;23.240;2023-04-06T07:55:35;-9481.16;;;2.50;100.00
9460;BME280;4768;42.664;23.240;2023-04-06T07:58:03;-9474.97;;;2.29;100.00
9460;BME280;4768;42.664;23.240;2023-04-06T08:00:30;-9468.19;;;2.05;100.00
9460;BME280;4768;42.664;23.240;2023-04-06T08:02:57;-9474.69;;;2.28;100.00
9460;BME280;4768;42.664;23.240;2023-04-06T08:05:23;-9473.41;;;2.23;100.00
9460;BME280;4768;42.664;23.240;2023-04-06T08:07:50;-9472.28;;;2.19;100.00
9460;BME280;4768;42.664;23.240;2023-04-06T08:10:17;-9466.09;;;1.97;100.00
9460;BME280;4768;42.664;23.240;2023-04-06T08:12:44;-9470.59;;;2.13;100.00
9460;BME280;4768;42.664;23.240;2023-04-06T08:15:12;-9464.38;;;1.92;100.00
9460;BME280;4768;42.664;23.240;2023-04-06T08:17:39;-9471.72;;;2.17;100.00
9460;BME280;4768;42.664;23.240;2023-04-06T08:20:06;-9466.34;;;1.98;100.00
9460;BME280;4768;42.664;23.240;2023-04-06T08:22:33;-9479.47;;;2.44;100.00
9460;BME280;4768;42.664;23.240;2023-04-06T08:25:00;-9476.94;;;2.36;100.00
9460;BME280;4768;42.664;23.240;2023-04-06T08:27:26;-9474.41;;;2.27;100.00
9460;BME280;4768;42.664;23.240;2023-04-06T08:29:53;-9481.75;;;2.52;100.00
9460;BME280;4768;42.664;23.240;2023-04-06T08:32:21;-9478.91;;;2.42;100.00
9460;BME280;4768;42.664;23.240;2023-04-06T08:34:48;-9485.97;;;2.67;100.00
9460;BME280;4768;42.664;23.240;2023-04-06T08:37:15;-9480.75;;;2.49;100.00
9460;BME280;4768;42.664;23.240;2023-04-06T08:39:41;-9474.97;;;2.29;100.00
9460;BME280;4768;42.664;23.240;2023-04-06T08:42:12;-9471.72;;;2.17;100.00
9460;BME280;4768;42.664;23.240;2023-04-06T08:44:43;-9478.22;;;2.40;100.00
9460;BME280;4768;42.664;23.240;2023-04-06T08:47:11;-9479.75;;;2.45;100.00
9460;BME280;4768;42.664;23.240;2023-04-06T08:49:39;-9481.03;;;2.50;100.00
9460;BME280;4768;42.664;23.240;2023-04-06T08:52:07;-9478.91;;;2.42;100.00
9460;BME280;4768;42.664;23.240;2023-04-06T08:54:34;-9484.13;;;2.61;100.00
9460;BME280;4768;42.664;23.240;2023-04-06T08:57:02;-9489.06;;;2.78;100.00
9460;BME280;4768;42.664;23.240;2023-04-06T08:59:29;-9482.03;;;2.53;100.00
9460;BME280;4768;42.664;23.240;2023-04-06T09:01:56;-9476.50;;;2.34;100.00
9460;BME280;4768;42.664;23.240;2023-04-06T09:04:24;-9482.03;;;2.53;100.00
9460;BME280;4768;42.664;23.240;2023-04-06T09:06:52;-9482.72;;;2.56;100.00
9460;BME280;4768;42.664;23.240;2023-04-06T09:09:19;-9488.78;;;2.77;100.00
9460;BME280;4768;42.664;23.240;2023-04-06T09:11:48;-9484.13;;;2.61;100.00
9460;BME280;4768;42.664;23.240;2023-04-06T09:14:16;-9488.78;;;2.77;100.00
9460;BME280;4768;42.664;23.240;2023-04-06T09:16:44;-9481.44;;;2.51;100.00
9460;BME280;4768;42.664;23.240;2023-04-06T09:19:12;-9482.31;;;2.54;100.00
9460;BME280;4768;42.664;23.240;2023-04-06T09:21:39;-9485.97;;;2.67;100.00
9460;BME280;4768;42.664;23.240;2023-04-06T09:24:08;-9486.81;;;2.70;100.00
9460;BME280;4768;42.664;23.240;2023-04-06T09:26:44;-9496.84;;;3.05;100.00
9460;BME280;4768;42.664;23.240;2023-04-06T09:29:21;-9492.88;;;2.91;100.00
9460;BME280;4768;42.664;23.240;2023-04-06T09:31:48;-9491.19;;;2.86;100.00
9460;BME280;4768;42.664;23.240;2023-04-06T09:34:20;-9494.16;;;2.96;100.00
9460;BME280;4768;42.664;23.240;2023-04-06T09:36:47;-9493.72;;;2.94;100.00
9460;BME280;4768;42.664;23.240;2023-04-06T09:39:19;-9502.47;;;3.25;100.00
9460;BME280;4768;42.664;23.240;2023-04-06T09:41:49;-9509.13;;;3.48;100.00
9460;BME280;4768;42.664;23.240;2023-04-06T09:44:16;-9523.38;;;3.98;100.00
9460;BME280;4768;42.664;23.240;2023-04-06T09:46:44;-9520.28;;;3.87;100.00
9460;BME280;4768;42.664;23.240;2023-04-06T09:49:12;-9508.97;;;3.48;100.00
9460;BME280;4768;42.664;23.240;2023-04-06T09:51:40;-9504.03;;;3.31;100.00
9460;BME280;4768;42.664;23.240;2023-04-06T09:54:07;-9500.38;;;3.18;100.00
9460;BME280;4768;42.664;23.240;2023-04-06T09:56:44;-9514.34;;;3.67;100.00
9460;BME280;4768;42.664;23.240;2023-04-06T09:59:14;-9526.34;;;4.09;100.00
9460;BME280;4768;42.664;23.240;2023-04-06T10:01:46;-9509.97;;;3.51;100.00
9460;BME280;4768;42.664;23.240;2023-04-06T10:04:23;-9507.84;;;3.44;100.00
9460;BME280;4768;42.664;23.240;2023-04-06T10:06:54;-9531.44;;;4.27;100.00
9460;BME280;4768;42.664;23.240;2023-04-06T10:09:25;-9550.25;;;4.92;100.00
9460;BME280;4768;42.664;23.240;2023-04-06T10:11:55;-9542.31;;;4.65;100.00
9460;BME280;4768;42.664;23.240;2023-04-06T10:14:24;-9554.34;;;5.07;100.00
9460;BME280;4768;42.664;23.240;2023-04-06T10:16:51;-9558.00;;;5.20;100.00
9460;BME280;4768;42.664;23.240;2023-04-06T10:19:25;-9550.94;;;4.95;100.00
9460;BME280;4768;42.664;23.240;2023-04-06T10:21:54;-9525.50;;;4.06;100.00
9460;BME280;4768;42.664;23.240;2023-04-06T10:24:24;-9517.88;;;3.79;100.00
9460;BME280;4768;42.664;23.240;2023-04-06T10:27:01;-9515.06;;;3.69;100.00
9460;BME280;4768;42.664;23.240;2023-04-06T10:29:28;-9524.09;;;4.01;100.00
9460;BME280;4768;42.664;23.240;2023-04-06T10:31:54;-9533.41;;;4.33;100.00
9460;BME280;4768;42.664;23.240;2023-04-06T10:34:21;-9529.03;;;4.18;100.00
9460;BME280;4768;42.664;23.240;2023-04-06T10:36:48;-9526.63;;;4.10;100.00
9460;BME280;4768;42.664;23.240;2023-04-06T10:39:24;-9519.56;;;3.85;100.00
9460;BME280;4768;42.664;23.240;2023-04-06T10:41:51;-9521.41;;;3.91;100.00
9460;BME280;4768;42.664;23.240;2023-04-06T10:44:20;-9524.09;;;4.01;100.00
9460;BME280;4768;42.664;23.240;2023-04-06T10:46:52;-9534.84;;;4.38;100.00
9460;BME280;4768;42.664;23.240;2023-04-06T10:49:20;-9536.94;;;4.46;100.00
9460;BME280;4768;42.664;23.240;2023-04-06T10:51:51;-9532.16;;;4.29;100.00
9460;BME280;4768;42.664;23.240;2023-04-06T10:54:21;-8851.06;;;4.17;100.00
9460;BME280;4768;42.664;23.240;2023-04-06T10:56:48;-9533.00;;;4.32;100.00
9460;BME280;4768;42.664;23.240;2023-04-06T10:59:20;-9522.13;;;3.94;100.00
9460;BME280;4768;42.664;23.240;2023-04-06T11:01:47;-9532.44;;;4.30;100.00
9460;BME280;4768;42.664;23.240;2023-04-06T11:04:15;-9541.06;;;4.60;100.00
9460;BME280;4768;42.664;23.240;2023-04-06T11:06:46;-9523.81;;;4.00;100.00
9460;BME280;4768;42.664;23.240;2023-04-06T11:09:23;-9518.16;;;3.80;100.00
9460;BME280;4768;42.664;23.240;2023-04-06T11:11:50;-9521.41;;;3.91;100.00
9460;BME280;4768;42.664;23.240;2023-04-06T11:14:17;-9525.50;;;4.06;100.00
9460;BME280;4768;42.664;23.240;2023-04-06T11:16:47;-9519.56;;;3.85;100.00
9460;BME280;4768;42.664;23.240;2023-04-06T11:19:15;-9535.41;;;4.40;100.00
9460;BME280;4768;42.664;23.240;2023-04-06T11:21:43;-9504.75;;;3.33;100.00
9460;BME280;4768;42.664;23.240;2023-04-06T11:24:14;-9518.88;;;3.83;100.00
9460;BME280;4768;42.664;23.240;2023-04-06T11:26:45;-9519.72;;;3.85;100.00
9460;BME280;4768;42.664;23.240;2023-04-06T11:29:19;-9515.63;;;3.71;100.00
9460;BME280;4768;42.664;23.240;2023-04-06T11:31:49;-9512.09;;;3.59;100.00
9460;BME280;4768;42.664;23.240;2023-04-06T11:34:17;-9522.25;;;3.94;100.00
9460;BME280;4768;42.664;23.240;2023-04-06T11:36:45;-9520.00;;;3.86;100.00
9460;BME280;4768;42.664;23.240;2023-04-06T11:39:13;-9524.09;;;4.01;100.00
9460;BME280;4768;42.664;23.240;2023-04-06T11:41:40;-9521.28;;;3.91;100.00
9460;BME280;4768;42.664;23.240;2023-04-06T11:44:07;-9523.94;;;4.00;100.00
9460;BME280;4768;42.664;23.240;2023-04-06T11:46:33;-9529.31;;;4.19;100.00
9460;BME280;4768;42.664;23.240;2023-04-06T11:49:02;-9531.72;;;4.28;100.00
9460;BME280;4768;42.664;23.240;2023-04-06T11:51:29;-5801.94;;;3.87;100.00
9460;BME280;4768;42.664;23.240;2023-04-06T11:53:56;-9525.38;;;4.12;100.00
9460;BME280;4768;42.664;23.240;2023-04-06T11:56:24;-6482.41;;;4.06;100.00
9460;BME280;4768;42.664;23.240;2023-04-06T11:58:51;-6821.53;;;4.11;100.00
9460;BME280;4768;42.664;23.240;2023-04-06T12:01:18;-7841.06;;;4.32;100.00
9460;BME280;4768;42.664;23.240;2023-04-06T12:03:45;-3778.66;;;4.17;100.00
9460;BME280;4768;42.664;23.240;2023-04-06T12:06:13;-6489.06;;;4.34;100.00
9460;BME280;4768;42.664;23.240;2023-04-06T12:08:40;-8521.66;;;4.49;100.00
9460;BME280;4768;42.664;23.240;2023-04-06T12:11:07;-4794.56;;;4.21;100.00
9460;BME280;4768;42.664;23.240;2023-04-06T12:13:34;-2418.34;;;3.79;100.00
9460;BME280;4768;42.664;23.240;2023-04-06T12:16:01;-4450.28;;;3.91;100.00
9460;BME280;4768;42.664;23.240;2023-04-06T12:18:27;-4450.19;;;3.91;100.00
9460;BME280;4768;42.664;23.240;2023-04-06T12:20:54;-3774.19;;;3.93;100.00
9460;BME280;4768;42.664;23.240;2023-04-06T12:23:22;-2759.97;;;3.98;100.00
9460;BME280;4768;42.664;23.240;2023-04-06T12:25:49;628.13;;;3.80;100.00
9460;BME280;4768;42.664;23.240;2023-04-06T12:28:17;-1406.47;;;4.01;100.00
9460;BME280;4768;42.664;23.240;2023-04-06T12:30:45;286.56;;;4.03;100.00
9460;BME280;4768;42.664;23.240;2023-04-06T12:33:12;-2426.91;;;4.30;100.00
9460;BME280;4768;42.664;23.240;2023-04-06T12:35:39;-1072.63;;;4.33;100.00
9460;BME280;4768;42.664;23.240;2023-04-06T12:38:06;2656.97;;;4.23;100.00
9460;BME280;4768;42.664;23.240;2023-04-06T12:40:37;5032.16;;;4.12;100.00
9460;BME280;4768;42.664;23.240;2023-04-06T12:43:05;5032.69;;;4.01;100.00
9460;BME280;4768;42.664;23.240;2023-04-06T12:45:32;4353.31;;;4.17;100.00
9460;BME280;4768;42.664;23.240;2023-04-06T12:47:59;3335.94;;;4.14;100.00
9460;BME280;4768;42.664;23.240;2023-04-06T12:50:25;4013.69;;;4.23;100.00
9460;BME280;4768;42.664;23.240;2023-04-06T12:52:52;-1753.34;;;4.53;100.00
9460;BME280;4768;42.664;23.240;2023-04-06T12:55:19;6049.88;;;4.23;100.00
9460;BME280;4768;42.664;23.240;2023-04-06T12:57:48;11485.63;;;4.21;100.00
9460;BME280;4768;42.664;23.240;2023-04-06T13:00:16;12844.72;;;4.05;100.00
9460;BME280;4768;42.664;23.240;2023-04-06T13:02:43;13525.38;;;4.10;100.00
9460;BME280;4768;42.664;23.240;2023-04-06T13:05:12;12506.13;;;4.25;100.00
9460;BME280;4768;42.664;23.240;2023-04-06T13:07:40;17953.13;;;4.27;100.00
9460;BME280;4768;42.664;23.240;2023-04-06T13:10:07;22384.97;;;4.25;100.00